aviador You're here:

LFBI Decoded Metar

POITIERS in FRANCE
Report Time2017-08-24 03:00:00
UTC Time2017-08-24 03:08:59
Flight Rules vfr VFR
Wind330° at 05 kt
W.Decomp.*RWY 03: 2.6 kt HW 4.3 kt LCW
W.Rank330° ranks 14
Current wind is below 330° avg. (5.8)
Visibility9999 m
Phenomena:N/A
Clouds:N/A
Expected CloudBase > 800 ft AGL from Temp-Dew spread
CeilingNone
Temp15°C (ISA +1)
Dew Point13°C (88% RH)
AAT14.1°C
QNH1017 hPa
Density Alt554 ft
Elevation394 ft
Report Wrong Elevation
Raw Report
METAR LFBI 240300Z AUTO 33005KT CAVOK 15/13 Q1017 NOSIG=

Extra information for LFBI:More info

Metar Taf Metar & Taf Last 4 Metars F.Rules Stats Wind Profile Meteogram Temp Stats Airport Information Weather charts Add Link Nearby VenuesMetar ALERT Operation Metar Decoded Social comments